Time;durP1;ratioP1;P1;durP2;ratioP2;P2;SDS_P1;SDS_P2;PMS_P1;PMS_P2;Temp;Humidity;BMP_temperature;BMP_pressure;BME280_temperature;BME280_humidity;BME280_pressure;Samples;Min_cycle;Max_cycle;Signal;HPM_P1;HPM_P2
2023/03/26 14:41:12;;;;;;;11.60;2.80;;;8.60;99.90;;;;;;6261110;22;2709804;-84
2023/03/26 14:44:16;;;;;;;14.60;4.28;;;8.60;99.90;;;;;;6325167;22;20034;-80
2023/03/26 14:46:55;;;;;;;10.07;2.55;;;8.50;99.90;;;;;;6352976;22;20015;-81
2023/03/26 14:49:40;;;;;;;11.93;3.05;;;8.50;99.90;;;;;;6351648;22;20021;-79
2023/03/26 14:52:12;;;;;;;13.23;4.43;;;8.40;99.90;;;;;;6324228;22;20021;-81
2023/03/26 14:54:43;;;;;;;5.30;2.53;;;8.40;99.90;;;;;;6325103;22;20011;-83
2023/03/26 14:57:51;;;;;;;7.80;2.60;;;8.40;99.90;;;;;;6324080;22;20044;-81
2023/03/26 15:00:41;;;;;;;6.97;3.13;;;8.50;99.90;;;;;;6323067;22;20018;-81
2023/03/26 15:03:33;;;;;;;8.52;2.65;;;8.50;99.90;;;;;;6323051;22;20393;-81
2023/03/26 15:06:28;;;;;;;8.98;2.35;;;8.50;99.90;;;;;;6295668;22;20090;-81
2023/03/26 15:09:31;;;;;;;15.32;3.33;;;8.50;99.90;;;;;;6322500;22;20014;-81
2023/03/26 15:12:15;;;;;;;7.38;3.10;;;8.50;99.90;;;;;;6317549;22;20349;-85
2023/03/26 15:15:05;;;;;;;9.05;3.10;;;8.50;99.90;;;;;;6344865;22;20375;-83
2023/03/26 15:18:10;;;;;;;9.63;3.05;;;8.50;99.90;;;;;;6317101;22;20090;-83
2023/03/26 15:21:13;;;;;;;6.25;2.60;;;8.40;99.90;;;;;;6315904;22;20122;-83
2023/03/26 15:24:16;;;;;;;11.05;2.50;;;8.40;99.90;;;;;;6345156;22;20093;-83
2023/03/26 15:26:45;;;;;;;9.57;2.40;;;8.40;99.90;;;;;;6344708;22;20026;-83
2023/03/26 15:29:30;;;;;;;9.35;4.20;;;8.30;99.90;;;;;;6344416;22;20014;-83
2023/03/26 15:32:06;;;;;;;8.93;2.38;;;8.30;99.90;;;;;;6345165;22;20023;-82
2023/03/26 15:35:11;;;;;;;10.75;3.10;;;8.20;99.90;;;;;;6317946;22;20023;-83
2023/03/26 15:38:14;;;;;;;8.63;2.47;;;8.20;99.90;;;;;;6342885;22;20007;-79
2023/03/26 15:41:18;;;;;;;17.88;3.70;;;8.20;99.90;;;;;;6341311;22;20019;-83
2023/03/26 15:43:58;;;;;;;10.18;3.08;;;8.20;99.90;;;;;;6337904;22;20112;-82
2023/03/26 15:46:54;;;;;;;9.52;2.17;;;8.20;99.90;;;;;;6341413;22;20040;-83
2023/03/26 15:49:23;;;;;;;10.82;2.60;;;8.20;99.90;;;;;;6338843;22;20065;-83
2023/03/26 15:51:49;;;;;;;8.68;2.70;;;8.10;99.90;;;;;;6335991;22;20086;-83
2023/03/26 15:54:21;;;;;;;9.23;2.70;;;8.10;99.90;;;;;;6309011;22;20109;-83
2023/03/26 15:57:15;;;;;;;9.82;2.50;;;8.10;99.90;;;;;;6309353;22;20026;-84
2023/03/26 15:59:59;;;;;;;10.05;2.33;;;8.10;99.90;;;;;;6336847;22;20064;-83
2023/03/26 16:02:39;;;;;;;9.30;2.45;;;8.00;99.90;;;;;;6336961;22;20018;-83
2023/03/26 16:05:25;;;;;;;9.82;2.50;;;8.00;99.90;;;;;;6337128;22;20011;-83
2023/03/26 16:08:09;;;;;;;4.82;2.40;;;8.00;99.90;;;;;;6320797;22;20010;-81
2023/03/26 16:10:54;;;;;;;5.78;2.05;;;7.90;99.90;;;;;;6337194;22;20041;-82
2023/03/26 16:13:23;;;;;;;4.10;1.90;;;7.90;99.90;;;;;;6337198;22;20037;-83
2023/03/26 16:16:15;;;;;;;15.77;2.85;;;7.80;99.90;;;;;;6336975;22;20014;-83
2023/03/26 16:19:15;;;;;;;9.25;1.67;;;7.80;99.90;;;;;;6335648;22;20374;-83
2023/03/26 16:22:00;;;;;;;15.07;5.70;;;7.70;99.90;;;;;;6287767;22;20018;-82
2023/03/26 16:24:39;;;;;;;14.23;4.50;;;7.70;99.90;;;;;;6309550;22;20388;-84
2023/03/26 16:27:14;;;;;;;7.88;2.67;;;7.70;99.90;;;;;;6339966;22;20010;-84
2023/03/26 16:30:26;;;;;;;12.23;3.78;;;7.70;99.90;;;;;;6336183;22;20006;-84
2023/03/26 16:32:54;;;;;;;19.42;5.70;;;7.70;99.90;;;;;;6240827;23;20576;-84
2023/03/26 16:35:46;;;;;;;12.90;4.55;;;7.70;99.90;;;;;;6325901;22;20015;-83
2023/03/26 16:38:15;;;;;;;14.05;2.75;;;7.70;99.90;;;;;;6304421;22;20033;-81
2023/03/26 16:40:52;;;;;;;12.70;3.15;;;7.80;99.90;;;;;;6308947;22;20019;-83
2023/03/26 16:43:56;;;;;;;11.57;2.22;;;7.70;99.90;;;;;;6308633;22;20027;-82
2023/03/26 16:46:55;;;;;;;7.85;2.42;;;7.70;99.90;;;;;;6309547;22;20014;-81
2023/03/26 16:49:51;;;;;;;15.75;2.90;;;7.70;99.90;;;;;;6338126;22;20377;-81
2023/03/26 16:52:31;;;;;;;9.02;2.05;;;7.60;99.90;;;;;;6339103;22;20010;-82
2023/03/26 16:55:19;;;;;;;8.27;2.40;;;7.60;99.90;;;;;;6340260;22;20033;-83
2023/03/26 16:58:10;;;;;;;9.88;2.60;;;7.50;99.90;;;;;;6334860;22;20015;-83
2023/03/26 17:01:02;;;;;;;11.63;2.83;;;7.50;99.90;;;;;;6307001;22;20015;-82
2023/03/26 17:03:52;;;;;;;13.15;3.17;;;7.50;99.90;;;;;;6307606;22;20026;-83
2023/03/26 17:06:46;;;;;;;6.13;2.28;;;7.50;99.90;;;;;;6306780;22;20015;-83
2023/03/26 17:09:54;;;;;;;10.48;2.72;;;7.50;99.90;;;;;;6306743;22;20089;-83
2023/03/26 17:12:44;;;;;;;7.82;2.80;;;7.40;99.90;;;;;;6334366;22;20022;-82
2023/03/26 17:15:35;;;;;;;9.13;2.90;;;7.20;99.90;;;;;;6339257;22;20089;-84
2023/03/26 17:18:20;;;;;;;16.98;2.83;;;7.10;99.90;;;;;;6339342;22;20025;-84
2023/03/26 17:21:27;;;;;;;11.25;2.42;;;7.10;99.90;;;;;;6306997;22;20148;-83
2023/03/26 17:23:58;;;;;;;8.70;2.60;;;7.00;99.90;;;;;;6223495;22;20027;-82
2023/03/26 17:26:56;;;;;;;8.98;2.20;;;6.90;99.90;;;;;;6335469;22;20019;-84
2023/03/26 17:29:29;;;;;;;8.13;2.22;;;6.90;99.90;;;;;;6306517;22;20314;-83
2023/03/26 17:32:10;;;;;;;20.50;4.05;;;6.90;99.90;;;;;;6334578;22;20088;-82
2023/03/26 17:34:57;;;;;;;9.43;2.67;;;6.80;99.90;;;;;;6306402;22;20071;-82
2023/03/26 17:37:22;;;;;;;9.75;2.20;;;6.80;99.90;;;;;;6333805;22;20019;-82
2023/03/26 17:40:00;;;;;;;14.88;2.20;;;6.80;99.90;;;;;;6334402;22;20022;-83
2023/03/26 17:42:34;;;;;;;14.00;2.00;;;6.70;99.90;;;;;;6334958;22;20269;-75
2023/03/26 17:45:27;;;;;;;13.70;2.75;;;6.60;99.90;;;;;;6306221;22;20820;-90
2023/03/26 17:47:58;;;;;;;8.20;2.53;;;6.60;99.90;;;;;;6311295;22;20015;-90
2023/03/26 17:50:33;;;;;;;11.95;3.35;;;6.60;99.90;;;;;;6292900;22;20093;-88
2023/03/26 17:53:12;;;;;;;8.48;2.40;;;6.50;99.90;;;;;;6319267;22;20019;-90
2023/03/26 17:55:42;;;;;;;10.73;2.60;;;6.50;99.90;;;;;;6319613;22;20075;-86
2023/03/26 17:58:25;;;;;;;6.28;2.92;;;6.50;99.90;;;;;;6293073;22;20015;-87
2023/03/26 18:01:06;;;;;;;;;;;6.40;99.90;;;;;;6347713;22;20045;-89
2023/03/26 18:03:48;;;;;;;10.63;2.63;;;6.30;99.90;;;;;;6346650;22;19911;-90
2023/03/26 18:06:28;;;;;;;9.60;2.85;;;6.30;99.90;;;;;;6320088;22;20045;-90
2023/03/26 18:09:31;;;;;;;16.83;3.08;;;6.30;99.90;;;;;;6349363;22;20018;-89
2023/03/26 18:12:20;;;;;;;13.52;2.88;;;6.30;99.90;;;;;;6349432;22;20011;-91
2023/03/26 18:15:23;;;;;;;15.45;3.00;;;6.30;99.90;;;;;;6318112;22;20498;-89
2023/03/26 18:17:54;;;;;;;8.60;2.17;;;6.20;99.90;;;;;;6319091;22;20421;-89
2023/03/26 18:20:23;;;;;;;11.10;2.38;;;6.20;99.90;;;;;;6318355;22;20030;-88
2023/03/26 18:22:50;;;;;;;9.70;2.00;;;6.20;99.90;;;;;;6348521;22;20018;-87
2023/03/26 18:25:32;;;;;;;10.65;2.58;;;6.10;99.90;;;;;;6348136;22;20026;-90
2023/03/26 18:28:01;;;;;;;7.70;2.85;;;6.10;99.90;;;;;;6315555;22;20097;-68
2023/03/26 18:30:27;;;;;;;11.90;3.65;;;6.10;99.90;;;;;;6308091;22;20011;-85
2023/03/26 18:33:01;;;;;;;8.68;2.60;;;6.00;99.90;;;;;;6315096;22;20033;-83
2023/03/26 18:35:40;;;;;;;9.52;2.47;;;6.10;99.90;;;;;;6343140;22;20021;-85
2023/03/26 18:38:15;;;;;;;10.18;2.33;;;6.00;99.90;;;;;;6315766;22;20019;-86
2023/03/26 18:40:44;;;;;;;9.18;2.90;;;6.00;99.90;;;;;;6318690;22;20010;-84
2023/03/26 18:43:18;;;;;;;12.77;2.85;;;6.00;99.90;;;;;;6319221;22;20113;-85
2023/03/26 18:45:46;;;;;;;5.22;1.85;;;5.90;99.90;;;;;;6317428;22;20026;-86
2023/03/26 18:48:23;;;;;;;4.30;2.00;;;5.90;99.90;;;;;;6346107;22;20056;-88
2023/03/26 18:51:01;;;;;;;8.10;2.38;;;5.90;99.90;;;;;;6321645;22;20026;-88
2023/03/26 18:53:32;;;;;;;8.32;2.08;;;5.80;99.90;;;;;;6317094;22;20007;-86
2023/03/26 18:55:58;;;;;;;9.73;2.42;;;5.80;99.90;;;;;;6315802;22;20015;-86
2023/03/26 18:58:33;;;;;;;12.63;2.40;;;5.80;99.90;;;;;;6315125;22;20026;-86
2023/03/26 19:01:05;;;;;;;7.07;2.10;;;5.80;99.90;;;;;;6289096;22;20310;-90
2023/03/26 19:03:35;;;;;;;6.97;2.15;;;5.80;99.90;;;;;;6315372;22;20444;-87
2023/03/26 19:06:03;;;;;;;7.32;2.30;;;5.80;99.90;;;;;;6346382;22;20026;-90
2023/03/26 19:08:33;;;;;;;7.10;2.95;;;5.70;99.90;;;;;;6319490;22;20090;-89
2023/03/26 19:11:03;;;;;;;11.15;3.47;;;5.80;99.90;;;;;;6347523;22;20041;-89
2023/03/26 19:13:31;;;;;;;6.97;2.33;;;5.80;99.90;;;;;;6319869;22;20022;-90
2023/03/26 19:15:57;;;;;;;7.60;2.40;;;5.70;99.90;;;;;;6347893;22;20015;-90
2023/03/26 19:18:26;;;;;;;18.33;4.25;;;5.70;99.90;;;;;;6321106;22;20456;-88
2023/03/26 19:21:03;;;;;;;16.08;3.53;;;5.80;99.90;;;;;;6320833;22;20401;-91
2023/03/26 19:23:38;;;;;;;23.20;7.43;;;5.70;99.90;;;;;;6352708;22;20010;-88
2023/03/26 19:26:08;;;;;;;12.77;4.32;;;5.60;99.90;;;;;;6322821;22;20010;-88
2023/03/26 19:28:40;;;;;;;9.65;2.30;;;5.60;99.90;;;;;;6301577;22;20011;-87
2023/03/26 19:31:08;;;;;;;8.88;2.72;;;5.60;99.90;;;;;;6351815;22;20011;-89
2023/03/26 19:33:36;;;;;;;5.25;2.22;;;5.60;99.90;;;;;;6321203;22;20014;-89
2023/03/26 19:36:13;;;;;;;8.15;1.88;;;5.60;99.90;;;;;;6346269;22;20003;-90
2023/03/26 19:38:47;;;;;;;4.63;2.40;;;5.60;99.90;;;;;;6319681;22;20014;-88
2023/03/26 19:41:23;;;;;;;8.35;2.03;;;5.60;99.90;;;;;;6322259;22;20319;-89
2023/03/26 19:43:50;;;;;;;5.93;2.22;;;5.50;99.90;;;;;;6350903;22;20042;-89
2023/03/26 19:46:20;;;;;;;13.13;2.40;;;5.50;99.90;;;;;;6324035;22;20018;-89
2023/03/26 19:48:48;;;;;;;8.10;1.92;;;5.40;99.90;;;;;;6323383;22;20014;-90
2023/03/26 19:51:20;;;;;;;10.40;2.30;;;5.50;99.90;;;;;;6322206;22;20007;-90
2023/03/26 19:53:53;;;;;;;5.97;1.63;;;5.40;99.90;;;;;;6350331;22;20064;-90
2023/03/26 19:56:20;;;;;;;9.32;3.38;;;5.30;99.90;;;;;;6320931;22;20096;-88
2023/03/26 19:58:47;;;;;;;7.95;2.03;;;5.30;99.90;;;;;;6320970;22;19995;-88
2023/03/26 20:01:17;;;;;;;9.10;2.03;;;5.30;99.90;;;;;;6346306;22;20457;-87
2023/03/26 20:03:45;;;;;;;6.40;1.85;;;5.30;99.90;;;;;;6321751;22;20015;-88
2023/03/26 20:06:20;;;;;;;10.48;1.95;;;5.20;99.90;;;;;;6324164;22;20021;-86
2023/03/26 20:08:49;;;;;;;9.65;3.80;;;5.20;99.90;;;;;;6350751;22;20053;-88
2023/03/26 20:11:22;;;;;;;7.10;2.30;;;5.20;99.90;;;;;;6296248;22;20018;-88
2023/03/26 20:13:49;;;;;;;12.98;2.50;;;5.20;99.90;;;;;;6297838;22;20014;-90
2023/03/26 20:16:17;;;;;;;5.68;2.25;;;5.10;99.90;;;;;;6350414;22;20019;-89
2023/03/26 20:18:43;;;;;;;11.05;2.10;;;5.20;99.90;;;;;;6322602;22;20018;-88
2023/03/26 20:21:11;;;;;;;11.77;2.30;;;5.20;99.90;;;;;;6297637;22;20076;-87
2023/03/26 20:23:38;;;;;;;7.25;2.17;;;5.10;99.90;;;;;;6351751;22;20014;-90
2023/03/26 20:26:04;;;;;;;9.32;2.30;;;5.20;99.90;;;;;;6352103;22;20006;-90
2023/03/26 20:28:30;;;;;;;12.45;2.30;;;5.20;99.90;;;;;;6323998;22;20278;-90
2023/03/26 20:30:56;;;;;;;6.97;1.60;;;5.10;99.90;;;;;;6323016;22;20025;-91
2023/03/26 20:33:25;;;;;;;7.50;2.20;;;5.10;99.90;;;;;;6321970;22;20106;-89
2023/03/26 20:35:52;;;;;;;6.13;1.80;;;5.00;99.90;;;;;;6349480;22;20011;-88
2023/03/26 20:38:19;;;;;;;10.20;1.95;;;5.10;99.90;;;;;;6323587;22;20337;-88
2023/03/26 20:40:45;;;;;;;8.63;2.63;;;5.10;99.90;;;;;;6318676;22;20075;-88
2023/03/26 20:43:13;;;;;;;11.35;2.30;;;5.10;99.90;;;;;;6317313;22;20023;-88
2023/03/26 20:45:39;;;;;;;7.93;1.98;;;5.00;99.90;;;;;;6317362;22;20016;-89
2023/03/26 20:48:07;;;;;;;7.88;2.38;;;5.10;99.90;;;;;;6319603;22;20011;-89
2023/03/26 20:50:33;;;;;;;6.63;2.10;;;5.10;99.90;;;;;;6320897;22;20019;-88
2023/03/26 20:52:59;;;;;;;5.78;2.35;;;5.00;99.90;;;;;;6319136;22;20011;-89
2023/03/26 20:55:27;;;;;;;18.77;3.55;;;5.00;99.90;;;;;;6317063;22;20073;-87
2023/03/26 20:57:54;;;;;;;9.23;2.45;;;5.00;99.90;;;;;;6317233;22;20015;-87
2023/03/26 21:00:23;;;;;;;7.18;2.10;;;5.00;99.90;;;;;;6315596;22;20011;-89
2023/03/26 21:02:53;;;;;;;5.25;2.22;;;4.90;99.90;;;;;;6313913;22;20022;-89
2023/03/26 21:05:23;;;;;;;6.68;2.22;;;4.90;99.90;;;;;;6309112;22;20011;-88
2023/03/26 21:07:59;;;;;;;5.88;2.10;;;4.90;99.90;;;;;;6309219;22;20072;-89
2023/03/26 21:10:28;;;;;;;5.05;2.15;;;4.90;99.90;;;;;;6309575;22;20012;-89
2023/03/26 21:13:07;;;;;;;13.75;2.85;;;5.00;99.90;;;;;;6307263;22;20015;-88
2023/03/26 21:15:33;;;;;;;8.35;2.03;;;4.90;99.90;;;;;;6306143;22;20016;-87
2023/03/26 21:17:59;;;;;;;5.97;1.80;;;4.90;99.90;;;;;;6306206;22;20015;-87
2023/03/26 21:20:26;;;;;;;7.32;1.98;;;4.90;99.90;;;;;;6306499;22;20015;-87
2023/03/26 21:23:08;;;;;;;9.35;2.05;;;4.90;99.90;;;;;;6305744;22;20022;-87
2023/03/26 21:25:46;;;;;;;4.30;2.58;;;4.80;99.90;;;;;;6308354;22;20045;-88
2023/03/26 21:28:20;;;;;;;6.63;2.10;;;4.80;99.90;;;;;;6308212;22;20358;-90
2023/03/26 21:30:46;;;;;;;7.25;2.38;;;4.80;99.90;;;;;;6313156;22;20041;-88
2023/03/26 21:33:12;;;;;;;8.18;2.03;;;4.80;99.90;;;;;;6315389;22;20103;-88
2023/03/26 21:35:39;;;;;;;7.13;2.08;;;4.90;99.90;;;;;;6307524;22;20156;-88
2023/03/26 21:38:05;;;;;;;5.15;2.47;;;4.70;99.90;;;;;;6307935;22;20004;-87
2023/03/26 21:40:31;;;;;;;11.95;2.22;;;4.80;99.90;;;;;;6312783;22;20136;-88
2023/03/26 21:42:57;;;;;;;9.93;1.90;;;4.80;99.90;;;;;;6338905;22;20018;-89
2023/03/26 21:45:23;;;;;;;8.50;2.45;;;4.90;99.90;;;;;;6339380;22;20049;-89
2023/03/26 21:47:49;;;;;;;8.98;2.20;;;4.80;99.90;;;;;;6339741;22;20011;-92
2023/03/26 21:50:19;;;;;;;11.18;2.55;;;4.80;99.90;;;;;;6339776;22;20014;-87
2023/03/26 21:52:48;;;;;;;9.50;2.75;;;4.90;99.90;;;;;;6339495;22;20015;-89
2023/03/26 21:55:19;;;;;;;10.18;2.30;;;4.80;99.90;;;;;;6341850;22;20026;-86
2023/03/26 21:58:03;;;;;;;8.18;2.33;;;4.80;99.90;;;;;;6347281;22;20014;-84
2023/03/26 22:00:43;;;;;;;8.23;2.00;;;4.80;99.90;;;;;;6341296;22;20085;-86
2023/03/26 22:03:31;;;;;;;5.28;2.15;;;4.80;99.90;;;;;;6338112;22;20022;-89
2023/03/26 22:06:05;;;;;;;11.05;2.72;;;4.80;99.90;;;;;;6310487;22;20040;-85
2023/03/26 22:08:40;;;;;;;4.53;1.83;;;4.70;99.90;;;;;;6338781;22;20014;-86
2023/03/26 22:11:08;;;;;;;7.65;1.70;;;4.70;99.90;;;;;;6310980;22;20018;-86
2023/03/26 22:13:39;;;;;;;6.75;1.80;;;4.70;99.90;;;;;;6339899;22;20015;-85
2023/03/26 22:16:07;;;;;;;7.55;2.30;;;4.80;99.90;;;;;;6339782;22;20103;-85
2023/03/26 22:18:33;;;;;;;9.70;2.00;;;4.80;99.90;;;;;;6310887;22;20020;-86
2023/03/26 22:20:59;;;;;;;11.02;2.45;;;4.80;99.90;;;;;;6284276;22;20057;-84
2023/03/26 22:23:26;;;;;;;9.63;2.70;;;4.80;99.90;;;;;;6336900;22;20458;-86
2023/03/26 22:25:52;;;;;;;10.48;2.20;;;4.70;99.90;;;;;;6336940;22;20524;-85
2023/03/26 22:28:18;;;;;;;3.78;1.55;;;4.70;99.90;;;;;;6309878;22;20037;-85
2023/03/26 22:30:43;;;;;;;4.38;2.47;;;4.70;99.90;;;;;;6316816;22;20022;-85
2023/03/26 22:33:10;;;;;;;12.38;2.17;;;4.80;99.90;;;;;;6345113;22;20046;-87
2023/03/26 22:35:37;;;;;;;6.57;2.30;;;4.70;99.90;;;;;;6338898;22;20073;-86
2023/03/26 22:38:04;;;;;;;11.70;1.75;;;4.70;99.90;;;;;;6338466;22;20090;-85
2023/03/26 22:40:29;;;;;;;4.30;2.15;;;4.70;99.90;;;;;;6309367;22;20094;-86
2023/03/26 22:42:55;;;;;;;6.10;2.58;;;4.60;99.90;;;;;;6338864;22;20326;-86
2023/03/26 22:45:21;;;;;;;4.30;1.80;;;4.60;99.90;;;;;;6338759;22;20037;-86
2023/03/26 22:47:47;;;;;;;10.32;2.25;;;4.60;99.90;;;;;;6338772;22;20744;-86
2023/03/26 22:50:13;;;;;;;8.98;4.10;;;4.60;99.90;;;;;;6339917;22;20046;-86
2023/03/26 22:52:40;;;;;;;13.88;2.42;;;4.50;99.90;;;;;;6339852;22;20320;-89
2023/03/26 22:55:07;;;;;;;14.27;2.45;;;4.60;99.90;;;;;;6313342;22;20094;-86
2023/03/26 22:57:32;;;;;;;7.38;2.35;;;4.50;99.90;;;;;;6311165;22;20018;-88
2023/03/26 23:00:10;;;;;;;8.85;2.38;;;4.60;99.90;;;;;;6310928;22;20437;-86
2023/03/26 23:02:37;;;;;;;9.07;2.05;;;4.60;99.90;;;;;;6316610;22;20034;-85
2023/03/26 23:05:03;;;;;;;9.45;1.80;;;4.60;99.90;;;;;;6319590;22;20059;-84
2023/03/26 23:07:30;;;;;;;4.22;1.38;;;4.50;99.90;;;;;;6313415;22;20086;-86
2023/03/26 23:09:56;;;;;;;4.07;1.73;;;4.50;99.90;;;;;;6310584;22;20030;-86
2023/03/26 23:12:22;;;;;;;6.05;2.10;;;4.50;99.90;;;;;;6338898;22;20011;-85
2023/03/26 23:14:51;;;;;;;7.30;2.10;;;4.40;99.90;;;;;;6310695;22;20352;-85
2023/03/26 23:17:18;;;;;;;6.45;2.08;;;4.50;99.90;;;;;;6343634;22;20052;-87
2023/03/26 23:19:43;;;;;;;8.45;2.40;;;4.40;99.90;;;;;;6318737;22;20092;-86
2023/03/26 23:22:09;;;;;;;8.27;2.78;;;4.40;99.90;;;;;;6338973;22;20014;-87
2023/03/26 23:24:36;;;;;;;10.40;2.33;;;4.50;99.90;;;;;;6339308;22;20075;-88
2023/03/26 23:27:03;;;;;;;7.47;2.30;;;4.50;99.90;;;;;;6338228;22;20010;-86
2023/03/26 23:29:30;;;;;;;8.93;2.75;;;4.40;99.90;;;;;;6338731;22;20468;-87
2023/03/26 23:31:56;;;;;;;8.27;1.75;;;4.30;99.90;;;;;;6311065;22;20011;-87
2023/03/26 23:34:22;;;;;;;7.43;2.53;;;4.20;99.90;;;;;;6311570;22;20022;-87
2023/03/26 23:36:48;;;;;;;4.45;2.55;;;4.30;99.90;;;;;;6338504;22;20030;-85
2023/03/26 23:39:14;;;;;;;6.50;1.77;;;4.30;99.90;;;;;;6310055;22;20019;-86
2023/03/26 23:41:40;;;;;;;6.65;1.95;;;4.30;99.90;;;;;;6336385;22;20029;-85
2023/03/26 23:44:06;;;;;;;9.52;2.03;;;4.30;99.90;;;;;;6336791;22;20018;-86
2023/03/26 23:46:32;;;;;;;8.60;2.20;;;4.20;99.90;;;;;;6336286;22;20668;-88
2023/03/26 23:48:58;;;;;;;7.68;2.88;;;4.20;99.90;;;;;;6335561;22;20023;-85
2023/03/26 23:51:24;;;;;;;6.43;2.20;;;4.20;99.90;;;;;;6335559;22;20015;-85
2023/03/26 23:53:51;;;;;;;4.57;1.58;;;4.20;99.90;;;;;;6335532;22;20021;-85
2023/03/26 23:56:17;;;;;;;3.97;1.77;;;4.20;99.90;;;;;;6307588;22;20053;-87
2023/03/26 23:58:43;;;;;;;9.00;2.00;;;4.20;99.90;;;;;;6335882;22;20018;-85
